createdAt,value
2022-09-15T00:00:54.831Z,97281.03
2022-09-15T00:01:56.758Z,97279.97
2022-09-15T00:02:58.384Z,97280.34
2022-09-15T00:03:59.951Z,97280.47
2022-09-15T00:05:01.409Z,97290.78
2022-09-15T00:06:03.775Z,97285.06
2022-09-15T00:07:05.680Z,97287.09
2022-09-15T00:08:07.142Z,97292.09
2022-09-15T00:09:08.710Z,97287.88
2022-09-15T00:10:10.787Z,97294.28
2022-09-15T00:11:20.740Z,97286.53
2022-09-15T00:12:22.453Z,97290.88
2022-09-15T00:13:25.804Z,97293.00
2022-09-15T00:14:27.632Z,97286.69
2022-09-15T00:15:29.332Z,97291.28
2022-09-15T00:16:32.956Z,97295.19
2022-09-15T00:17:35.863Z,97297.22
2022-09-15T00:18:39.852Z,97293.06
2022-09-15T00:19:41.345Z,97292.34
2022-09-15T00:20:44.581Z,97284.16
2022-09-15T00:21:46.933Z,97291.63
2022-09-15T00:22:49.066Z,97292.59
2022-09-15T00:23:51.615Z,97296.22
2022-09-15T00:24:53.182Z,97291.00
2022-09-15T00:25:55.171Z,97288.22
2022-09-15T00:26:57.099Z,97287.22
2022-09-15T00:27:58.765Z,97286.22
2022-09-15T00:29:01.407Z,97291.91
2022-09-15T00:30:04.251Z,97290.47
2022-09-15T00:31:07.518Z,97284.22
2022-09-15T00:32:09.233Z,97288.69
2022-09-15T00:33:11.561Z,97284.13
2022-09-15T00:34:14.145Z,97279.22
2022-09-15T00:35:15.875Z,97286.34
2022-09-15T00:36:18.522Z,97277.94
2022-09-15T00:37:20.012Z,97282.13
2022-09-15T00:38:22.037Z,97278.28
2022-09-15T00:39:23.604Z,97281.91
2022-09-15T00:40:25.771Z,97275.84
2022-09-15T00:41:27.716Z,97282.44
2022-09-15T00:42:29.419Z,97290.00
2022-09-15T00:43:51.479Z,97285.84
2022-09-15T00:44:59.130Z,97291.31
2022-09-15T00:46:00.773Z,97284.88
2022-09-15T00:47:18.661Z,97282.06
2022-09-15T00:48:22.874Z,97282.47
2022-09-15T00:49:31.752Z,97287.78
2022-09-15T00:50:34.721Z,97280.31
2022-09-15T00:51:40.517Z,97275.72
2022-09-15T00:52:56.324Z,97277.66
2022-09-15T00:54:04.219Z,97278.81
2022-09-15T00:55:31.211Z,97272.84
2022-09-15T00:56:34.813Z,97278.50
2022-09-15T00:57:51.175Z,97270.59
2022-09-15T00:58:57.918Z,97273.19
2022-09-15T01:00:03.864Z,97277.41
2022-09-15T01:01:08.544Z,97269.44
2022-09-15T01:02:28.838Z,97273.25
2022-09-15T01:03:33.215Z,97270.59
2022-09-15T01:04:34.714Z,97271.66
2022-09-15T01:05:43.029Z,97266.75
2022-09-15T01:06:52.013Z,97271.78
2022-09-15T01:07:53.354Z,97275.19
2022-09-15T01:09:01.940Z,97272.09
2022-09-15T01:10:08.502Z,97268.25
2022-09-15T01:11:10.461Z,97275.41
2022-09-15T01:12:12.034Z,97268.84
2022-09-15T01:13:14.837Z,97268.31
2022-09-15T01:14:16.621Z,97263.31
2022-09-15T01:15:18.393Z,97272.06
2022-09-15T01:16:33.444Z,97266.81
2022-09-15T01:17:34.822Z,97263.94
2022-09-15T01:18:57.248Z,97269.69
2022-09-15T01:20:21.371Z,97269.84
2022-09-15T01:21:45.449Z,97270.47
2022-09-15T01:23:05.292Z,97264.31
2022-09-15T01:24:45.133Z,97261.91
2022-09-15T01:26:17.573Z,97264.13
2022-09-15T01:27:42.189Z,97260.00
2022-09-15T01:29:03.861Z,97259.25
2022-09-15T01:30:16.116Z,97260.31
2022-09-15T01:31:26.765Z,97259.50
2022-09-15T01:33:01.286Z,97263.25
2022-09-15T01:34:18.596Z,97255.56
2022-09-15T01:35:40.666Z,97252.69
2022-09-15T01:36:52.721Z,97255.00
2022-09-15T01:38:24.783Z,97254.59
2022-09-15T01:39:33.009Z,97256.81
2022-09-15T01:40:44.794Z,97259.81
2022-09-15T01:41:51.154Z,97258.53
2022-09-15T01:42:54.052Z,97253.97
2022-09-15T01:44:05.291Z,97256.41
2022-09-15T01:45:11.457Z,97257.91
2022-09-15T01:46:15.403Z,97258.53
2022-09-15T01:47:21.082Z,97262.72
2022-09-15T01:48:26.488Z,97265.38
2022-09-15T01:49:53.118Z,97261.56
2022-09-15T01:51:00.355Z,97255.06
2022-09-15T01:52:02.344Z,97264.22
2022-09-15T01:53:12.269Z,97258.03
2022-09-15T01:54:16.321Z,97259.28
2022-09-15T01:55:40.511Z,97249.41
2022-09-15T01:56:42.111Z,97244.78
2022-09-15T01:57:44.067Z,97246.19
2022-09-15T01:58:45.623Z,97247.44
2022-09-15T01:59:48.928Z,97246.59
2022-09-15T02:00:58.893Z,97244.16
2022-09-15T02:02:05.765Z,97242.34
2022-09-15T02:03:27.166Z,97244.03
2022-09-15T02:04:36.773Z,97238.63
2022-09-15T02:05:45.063Z,97235.06
2022-09-15T02:06:56.021Z,97236.75
2022-09-15T02:08:25.607Z,97239.47
2022-09-15T02:09:36.798Z,97241.22
2022-09-15T02:10:45.011Z,97241.13
2022-09-15T02:12:12.344Z,97241.28
2022-09-15T02:13:17.375Z,97241.19
2022-09-15T02:15:03.531Z,97241.44
2022-09-15T02:16:15.294Z,97233.63
2022-09-15T02:17:19.813Z,97241.50
2022-09-15T02:18:36.352Z,97232.72
2022-09-15T02:19:41.801Z,97234.13
2022-09-15T02:21:03.558Z,97232.78
2022-09-15T02:22:10.622Z,97228.84
2022-09-15T02:23:23.793Z,97230.75
2022-09-15T02:24:31.028Z,97227.75
2022-09-15T02:25:37.982Z,97230.09
2022-09-15T02:26:41.198Z,97227.84
2022-09-15T02:27:50.148Z,97229.59
2022-09-15T02:28:54.181Z,97224.16
2022-09-15T02:30:03.221Z,97224.25
2022-09-15T02:31:08.951Z,97223.19
2022-09-15T02:32:13.686Z,97229.25
2022-09-15T02:33:24.110Z,97232.66
2022-09-15T02:34:32.440Z,97228.19
2022-09-15T02:35:36.142Z,97233.81
2022-09-15T02:36:38.426Z,97221.16
2022-09-15T02:37:40.217Z,97221.50
2022-09-15T02:38:54.360Z,97230.03
2022-09-15T02:40:00.276Z,97228.84
2022-09-15T02:41:02.823Z,97220.56
2022-09-15T02:42:04.880Z,97225.13
2022-09-15T02:43:11.716Z,97227.06
2022-09-15T02:44:13.228Z,97223.66
2022-09-15T02:45:14.744Z,97222.78
2022-09-15T02:46:21.296Z,97217.06
2022-09-15T02:47:23.571Z,97215.88
2022-09-15T02:48:25.683Z,97213.66
2022-09-15T02:49:27.193Z,97214.56
2022-09-15T02:50:28.689Z,97211.81
2022-09-15T02:51:31.068Z,97209.81
2022-09-15T02:52:32.596Z,97207.88
2022-09-15T02:53:34.546Z,97212.13
2022-09-15T02:54:35.992Z,97209.91
2022-09-15T02:55:37.489Z,97213.22
2022-09-15T02:56:39.011Z,97207.88
2022-09-15T02:57:40.476Z,97210.13
2022-09-15T02:58:43.534Z,97212.78
2022-09-15T03:00:03.474Z,97210.56
2022-09-15T03:01:06.692Z,97207.97
2022-09-15T03:02:09.181Z,97206.06
2022-09-15T03:03:11.036Z,97212.44
2022-09-15T03:04:12.788Z,97202.31
2022-09-15T03:05:15.566Z,97203.78
2022-09-15T03:06:17.094Z,97206.34
2022-09-15T03:07:19.364Z,97202.38
2022-09-15T03:08:21.093Z,97199.19
2022-09-15T03:09:22.554Z,97192.69
2022-09-15T03:10:25.665Z,97201.34
2022-09-15T03:11:29.355Z,97197.91
2022-09-15T03:12:30.827Z,97203.88
2022-09-15T03:13:32.268Z,97207.63
2022-09-15T03:14:34.443Z,97202.59
2022-09-15T03:15:36.925Z,97209.84
2022-09-15T03:16:38.439Z,97206.03
2022-09-15T03:17:44.689Z,97194.97
2022-09-15T03:18:46.806Z,97197.19
2022-09-15T03:19:48.622Z,97195.63
2022-09-15T03:20:50.042Z,97199.16
2022-09-15T03:21:51.984Z,97198.72
2022-09-15T03:22:54.343Z,97196.72
2022-09-15T03:23:58.318Z,97190.19
2022-09-15T03:24:59.885Z,97191.03
2022-09-15T03:26:02.264Z,97197.06
2022-09-15T03:27:04.507Z,97191.94
2022-09-15T03:28:05.967Z,97194.16
2022-09-15T03:29:07.802Z,97195.75
2022-09-15T03:30:10.483Z,97191.09
2022-09-15T03:31:12.057Z,97196.66
2022-09-15T03:32:13.583Z,97196.00
2022-09-15T03:33:15.028Z,97191.94
2022-09-15T03:34:16.975Z,97193.53
2022-09-15T03:35:18.425Z,97195.00
2022-09-15T03:36:19.862Z,97193.75
2022-09-15T03:37:21.372Z,97194.41
2022-09-15T03:38:23.246Z,97200.81
2022-09-15T03:39:25.158Z,97200.38
2022-09-15T03:40:26.669Z,97186.22
2022-09-15T03:41:29.316Z,97187.72
2022-09-15T03:42:30.930Z,97186.25
2022-09-15T03:43:32.876Z,97193.03
2022-09-15T03:44:35.792Z,97187.50
2022-09-15T03:45:38.909Z,97180.78
2022-09-15T03:46:40.417Z,97180.16
2022-09-15T03:47:41.918Z,97177.69
2022-09-15T03:48:43.782Z,97183.75
2022-09-15T03:49:45.228Z,97181.00
2022-09-15T03:50:47.267Z,97177.69
2022-09-15T03:51:48.721Z,97174.28
2022-09-15T03:52:50.569Z,97169.91
2022-09-15T03:53:52.475Z,97174.34
2022-09-15T03:54:54.063Z,97177.69
2022-09-15T03:55:55.589Z,97171.50
2022-09-15T03:56:57.085Z,97175.22
2022-09-15T03:57:58.623Z,97173.22
2022-09-15T03:59:02.184Z,97169.28
2022-09-15T04:00:05.445Z,97177.50
2022-09-15T04:01:07.035Z,97170.50
2022-09-15T04:02:08.577Z,97171.97
2022-09-15T04:03:10.385Z,97168.88
2022-09-15T04:04:12.763Z,97171.88
2022-09-15T04:05:14.670Z,97177.66
2022-09-15T04:06:16.753Z,97184.16
2022-09-15T04:07:18.198Z,97179.22
2022-09-15T04:08:19.679Z,97176.03
2022-09-15T04:09:21.892Z,97179.44
2022-09-15T04:10:24.476Z,97175.28
2022-09-15T04:11:26.470Z,97178.81
2022-09-15T04:12:30.009Z,97177.22
2022-09-15T04:13:31.986Z,97177.63
2022-09-15T04:14:33.495Z,97173.91
2022-09-15T04:15:34.937Z,97179.75
2022-09-15T04:16:36.553Z,97173.69
2022-09-15T04:17:38.037Z,97174.34
2022-09-15T04:18:40.486Z,97174.66
2022-09-15T04:19:41.941Z,97173.59
2022-09-15T04:20:43.379Z,97169.75
2022-09-15T04:21:45.762Z,97168.91
2022-09-15T04:22:47.218Z,97175.28
2022-09-15T04:23:49.871Z,97170.59
2022-09-15T04:24:51.421Z,97169.03
2022-09-15T04:26:04.239Z,97168.78
2022-09-15T04:27:05.698Z,97170.72
2022-09-15T04:28:07.174Z,97168.91
2022-09-15T04:29:14.568Z,97172.63
2022-09-15T04:30:16.038Z,97171.13
2022-09-15T04:31:18.157Z,97169.31
2022-09-15T04:32:20.610Z,97166.16
2022-09-15T04:33:22.464Z,97164.63
2022-09-15T04:34:24.957Z,97166.22
2022-09-15T04:35:26.488Z,97171.38
2022-09-15T04:36:28.940Z,97165.16
2022-09-15T04:37:31.284Z,97166.56
2022-09-15T04:38:33.460Z,97167.63
2022-09-15T04:39:34.954Z,97164.97
2022-09-15T04:40:36.752Z,97165.91
2022-09-15T04:41:38.314Z,97169.66
2022-09-15T04:42:40.024Z,97175.63
2022-09-15T04:43:43.666Z,97165.06
2022-09-15T04:44:45.089Z,97167.28
2022-09-15T04:45:46.552Z,97171.03
2022-09-15T04:46:48.786Z,97166.13
2022-09-15T04:47:51.664Z,97167.84
2022-09-15T04:48:54.219Z,97164.00
2022-09-15T04:49:55.667Z,97160.41
2022-09-15T04:51:08.793Z,97163.16
2022-09-15T04:52:10.234Z,97160.16
2022-09-15T04:53:11.668Z,97164.88
2022-09-15T04:54:13.430Z,97162.22
2022-09-15T04:55:14.940Z,97164.09
2022-09-15T04:56:21.630Z,97165.50
2022-09-15T04:57:23.046Z,97160.91
2022-09-15T04:58:24.791Z,97160.59
2022-09-15T04:59:26.259Z,97167.09
2022-09-15T05:00:28.284Z,97166.03
2022-09-15T05:01:32.307Z,97166.16
2022-09-15T05:02:33.851Z,97164.22
2022-09-15T05:03:37.556Z,97166.16
2022-09-15T05:04:39.064Z,97158.25
2022-09-15T05:05:41.264Z,97168.03
2022-09-15T05:06:42.708Z,97170.81
2022-09-15T05:07:44.225Z,97158.97
2022-09-15T05:08:54.557Z,97164.41
2022-09-15T05:09:56.098Z,97162.50
2022-09-15T05:11:06.451Z,97160.16
2022-09-15T05:12:08.022Z,97158.56
2022-09-15T05:13:09.873Z,97162.50
2022-09-15T05:14:11.823Z,97158.16
2022-09-15T05:15:13.325Z,97158.38
2022-09-15T05:16:18.241Z,97157.06
2022-09-15T05:17:20.905Z,97156.88
2022-09-15T05:18:24.091Z,97156.53
2022-09-15T05:19:25.656Z,97154.63
2022-09-15T05:20:27.101Z,97160.50
2022-09-15T05:21:29.359Z,97158.22
2022-09-15T05:22:31.103Z,97158.66
2022-09-15T05:23:34.782Z,97162.09
2022-09-15T05:24:36.240Z,97162.94
2022-09-15T05:25:38.794Z,97160.06
2022-09-15T05:26:41.806Z,97159.00
2022-09-15T05:27:43.379Z,97167.63
2022-09-15T05:28:45.285Z,97159.53
2022-09-15T05:29:46.805Z,97160.69
2022-09-15T05:30:48.659Z,97167.53
2022-09-15T05:31:50.222Z,97168.59
2022-09-15T05:32:53.717Z,97167.41
2022-09-15T05:33:55.571Z,97163.69
2022-09-15T05:34:57.020Z,97163.34
2022-09-15T05:36:00.655Z,97167.53
2022-09-15T05:37:02.610Z,97172.00
2022-09-15T05:38:04.459Z,97171.69
2022-09-15T05:39:05.915Z,97170.81
2022-09-15T05:40:08.705Z,97169.53
2022-09-15T05:41:12.157Z,97168.16
2022-09-15T05:42:13.641Z,97170.94
2022-09-15T05:43:16.347Z,97167.00
2022-09-15T05:44:17.870Z,97165.91
2022-09-15T05:45:19.370Z,97168.50
2022-09-15T05:46:20.911Z,97165.72
2022-09-15T05:47:23.356Z,97165.09
2022-09-15T05:48:25.250Z,97160.91
2022-09-15T05:49:26.758Z,97163.56
2022-09-15T05:50:28.227Z,97164.34
2022-09-15T05:51:30.268Z,97163.25
2022-09-15T05:52:31.869Z,97164.44
2022-09-15T05:53:35.599Z,97164.31
2022-09-15T05:54:37.024Z,97164.50
2022-09-15T05:55:38.478Z,97163.44
2022-09-15T05:56:40.055Z,97164.09
2022-09-15T05:57:41.665Z,97170.81
2022-09-15T05:58:45.897Z,97157.38
2022-09-15T05:59:47.449Z,97162.94
2022-09-15T06:00:49.208Z,97157.91
2022-09-15T06:01:50.701Z,97160.81
2022-09-15T06:02:52.293Z,97162.22
2022-09-15T06:03:55.370Z,97155.78
2022-09-15T06:04:56.867Z,97162.94
2022-09-15T06:05:59.994Z,97163.78
2022-09-15T06:07:01.415Z,97160.03
2022-09-15T06:08:03.159Z,97164.97
2022-09-15T06:09:05.637Z,97161.34
2022-09-15T06:10:07.941Z,97158.56
2022-09-15T06:11:15.672Z,97166.22
2022-09-15T06:12:18.425Z,97163.69
2022-09-15T06:13:20.214Z,97164.97
2022-09-15T06:14:21.611Z,97164.22
2022-09-15T06:15:23.810Z,97157.81
2022-09-15T06:16:25.349Z,97153.75
2022-09-15T06:17:27.294Z,97157.50
2022-09-15T06:18:28.808Z,97157.06
2022-09-15T06:19:30.388Z,97152.38
2022-09-15T06:20:31.894Z,97149.50
2022-09-15T06:21:33.637Z,97147.25
2022-09-15T06:22:35.448Z,97142.34
2022-09-15T06:23:38.007Z,97146.28
2022-09-15T06:24:39.481Z,97143.06
2022-09-15T06:25:40.936Z,97138.81
2022-09-15T06:26:42.388Z,97145.06
2022-09-15T06:27:43.861Z,97142.84
2022-09-15T06:28:59.165Z,97150.31
2022-09-15T06:30:00.636Z,97151.91
2022-09-15T06:31:02.211Z,97158.41
2022-09-15T06:32:05.135Z,97151.06
2022-09-15T06:33:06.881Z,97155.53
2022-09-15T06:34:11.309Z,97157.91
2022-09-15T06:35:12.824Z,97162.06
2022-09-15T06:36:15.951Z,97162.38
2022-09-15T06:37:17.895Z,97163.13
2022-09-15T06:38:19.323Z,97163.38
2022-09-15T06:39:20.777Z,97170.28
2022-09-15T06:40:22.363Z,97165.91
2022-09-15T06:41:24.443Z,97166.03
2022-09-15T06:42:26.203Z,97167.94
2022-09-15T06:43:27.725Z,97161.72
2022-09-15T06:44:29.419Z,97174.56
2022-09-15T06:45:31.189Z,97172.50
2022-09-15T06:46:32.711Z,97179.75
2022-09-15T06:47:34.325Z,97178.28
2022-09-15T06:48:37.197Z,97186.59
2022-09-15T06:49:38.562Z,97203.56
2022-09-15T06:50:40.006Z,97226.56
2022-09-15T06:51:42.031Z,97222.31
2022-09-15T06:52:43.959Z,97239.50
2022-09-15T06:53:46.225Z,97244.28
2022-09-15T06:54:48.108Z,97250.88
2022-09-15T06:55:50.128Z,97253.09
2022-09-15T06:56:51.562Z,97255.53
2022-09-15T06:57:53.052Z,97263.63
2022-09-15T06:58:55.983Z,97264.38
2022-09-15T06:59:57.398Z,97274.41
2022-09-15T07:01:04.127Z,97279.56
2022-09-15T07:02:05.646Z,97282.69
2022-09-15T07:03:07.467Z,97279.16
2022-09-15T07:04:10.022Z,97273.47
2022-09-15T07:05:11.545Z,97278.78
2022-09-15T07:06:13.313Z,97271.41
2022-09-15T07:07:15.089Z,97267.63
2022-09-15T07:08:17.175Z,97244.81
2022-09-15T07:09:19.531Z,97231.41
2022-09-15T07:10:21.010Z,97232.84
2022-09-15T07:11:22.847Z,97238.94
2022-09-15T07:12:24.273Z,97246.69
2022-09-15T07:13:26.219Z,97240.94
2022-09-15T07:14:27.647Z,97240.84
2022-09-15T07:15:29.406Z,97245.00
2022-09-15T07:16:30.896Z,97253.72
2022-09-15T07:17:32.748Z,97266.06
2022-09-15T07:18:37.669Z,97266.09
2022-09-15T07:19:43.164Z,97270.84
2022-09-15T07:20:44.797Z,97273.41
2022-09-15T07:21:46.232Z,97276.75
2022-09-15T07:22:47.686Z,97272.91
2022-09-15T07:23:49.762Z,97272.56
2022-09-15T07:24:51.166Z,97271.09
2022-09-15T07:25:52.620Z,97266.31
2022-09-15T07:26:54.638Z,97273.41
2022-09-15T07:27:56.077Z,97278.50
2022-09-15T07:29:03.718Z,97280.31
2022-09-15T07:30:08.554Z,97281.56
2022-09-15T07:31:14.073Z,97275.41
2022-09-15T07:32:15.580Z,97276.06
2022-09-15T07:33:17.065Z,97286.63
2022-09-15T07:34:18.769Z,97293.66
2022-09-15T07:35:21.772Z,97297.06
2022-09-15T07:36:23.298Z,97299.72
2022-09-15T07:37:25.052Z,97297.78
2022-09-15T07:38:26.565Z,97301.69
2022-09-15T07:39:29.046Z,97307.91
2022-09-15T07:40:31.505Z,97305.00
2022-09-15T07:41:33.365Z,97313.25
2022-09-15T07:42:35.648Z,97307.59
2022-09-15T07:43:37.456Z,97309.44
2022-09-15T07:44:38.943Z,97314.25
2022-09-15T07:45:40.724Z,97315.44
2022-09-15T07:46:42.223Z,97314.25
2022-09-15T07:47:43.742Z,97324.06
2022-09-15T07:48:46.800Z,97333.72
2022-09-15T07:49:48.240Z,97331.41
2022-09-15T07:50:49.740Z,97331.47
2022-09-15T07:51:51.250Z,97336.28
2022-09-15T07:52:56.172Z,97330.81
2022-09-15T07:53:57.703Z,97331.56
2022-09-15T07:54:59.155Z,97331.06
2022-09-15T07:56:00.632Z,97331.47
2022-09-15T07:57:02.318Z,97322.41
2022-09-15T07:58:03.860Z,97326.22
2022-09-15T07:59:05.402Z,97338.28
2022-09-15T08:00:07.731Z,97335.16
2022-09-15T08:01:14.859Z,97335.16
2022-09-15T08:02:18.615Z,97339.97
2022-09-15T08:03:20.124Z,97339.19
2022-09-15T08:04:21.566Z,97337.94
2022-09-15T08:05:28.107Z,97340.53
2022-09-15T08:06:29.823Z,97342.34
2022-09-15T08:07:34.462Z,97337.53
2022-09-15T08:08:41.329Z,97346.50
2022-09-15T08:09:42.890Z,97342.50
2022-09-15T08:10:44.739Z,97346.56
2022-09-15T08:11:49.051Z,97351.25
2022-09-15T08:12:54.621Z,97354.19
2022-09-15T08:13:56.304Z,97353.38
2022-09-15T08:14:58.049Z,97360.50
2022-09-15T08:16:10.982Z,97359.69
2022-09-15T08:17:13.223Z,97365.84
2022-09-15T08:18:15.308Z,97368.19
2022-09-15T08:19:17.357Z,97375.41
2022-09-15T08:20:19.988Z,97373.34
2022-09-15T08:21:22.901Z,97376.59
2022-09-15T08:22:25.155Z,97374.50
2022-09-15T08:23:27.019Z,97377.59
2022-09-15T08:24:29.344Z,97367.13
2022-09-15T08:25:31.406Z,97370.84
2022-09-15T08:26:32.882Z,97369.66
2022-09-15T08:27:34.375Z,97364.56
2022-09-15T08:28:36.434Z,97365.84
2022-09-15T08:29:37.994Z,97361.78
2022-09-15T08:30:39.546Z,97372.34
2022-09-15T08:31:41.438Z,97369.25
2022-09-15T08:32:43.018Z,97368.69
2022-09-15T08:33:49.844Z,97385.91
2022-09-15T08:34:51.526Z,97381.84
2022-09-15T08:35:53.995Z,97388.66
2022-09-15T08:36:56.356Z,97387.97
2022-09-15T08:37:58.015Z,97387.97
2022-09-15T08:38:59.791Z,97389.75
2022-09-15T08:40:01.766Z,97388.81
2022-09-15T08:41:06.533Z,97391.66
2022-09-15T08:42:15.844Z,97388.06
2022-09-15T08:43:24.676Z,97389.56
2022-09-15T08:44:32.069Z,97388.72
2022-09-15T08:45:47.930Z,97392.03
2022-09-15T08:47:01.032Z,97394.78
2022-09-15T08:48:04.841Z,97392.69
2022-09-15T08:49:41.234Z,97395.97
2022-09-15T08:50:50.107Z,97398.34
2022-09-15T08:51:53.330Z,97400.47
2022-09-15T08:53:20.101Z,97398.13
2022-09-15T08:54:25.278Z,97402.84
2022-09-15T08:55:48.231Z,97404.50
2022-09-15T08:56:50.787Z,97405.16
2022-09-15T08:57:55.582Z,97405.91
2022-09-15T08:58:57.127Z,97408.25
2022-09-15T08:59:59.638Z,97406.09
2022-09-15T09:01:32.537Z,97413.00
2022-09-15T09:03:15.654Z,97415.50
2022-09-15T09:04:28.909Z,97416.25
2022-09-15T09:05:57.486Z,97419.34
2022-09-15T09:07:17.969Z,97425.41
2022-09-15T09:08:30.676Z,97420.47
2022-09-15T09:09:59.971Z,97424.66
2022-09-15T09:11:40.326Z,97431.88
2022-09-15T09:12:49.122Z,97429.75
2022-09-15T09:14:04.711Z,97425.41
2022-09-15T09:15:31.300Z,97423.34
2022-09-15T09:17:02.621Z,97416.38
2022-09-15T09:18:22.605Z,97427.88
2022-09-15T09:19:33.208Z,97426.28
2022-09-15T09:20:44.587Z,97430.03
2022-09-15T09:21:58.854Z,97421.94
2022-09-15T09:23:04.100Z,97422.34
2022-09-15T09:24:06.997Z,97425.72
2022-09-15T09:25:26.668Z,97422.03
2022-09-15T09:26:32.851Z,97429.44
2022-09-15T09:27:35.143Z,97435.00
2022-09-15T09:28:45.871Z,97430.03
2022-09-15T09:29:49.888Z,97431.94
2022-09-15T09:30:51.997Z,97428.19
2022-09-15T09:31:56.567Z,97427.75
2022-09-15T09:33:00.950Z,97422.13
2022-09-15T09:34:33.629Z,97428.22
2022-09-15T09:35:52.301Z,97428.94
2022-09-15T09:36:59.355Z,97423.88
2022-09-15T09:38:02.517Z,97422.63
2022-09-15T09:39:04.355Z,97428.50
2022-09-15T09:40:06.452Z,97428.06
2022-09-15T09:41:25.490Z,97434.81
2022-09-15T09:42:34.738Z,97436.94
2022-09-15T09:43:36.818Z,97437.56
2022-09-15T09:44:40.411Z,97442.88
2022-09-15T09:45:41.980Z,97435.16
2022-09-15T09:46:43.907Z,97433.84
2022-09-15T09:47:46.452Z,97437.59
2022-09-15T09:48:56.746Z,97430.94
2022-09-15T09:49:59.495Z,97429.28
2022-09-15T09:51:01.053Z,97432.53
2022-09-15T09:52:04.608Z,97429.75
2022-09-15T09:53:32.364Z,97433.75
2022-09-15T09:54:35.482Z,97428.03
2022-09-15T09:55:37.332Z,97431.84
2022-09-15T09:56:39.981Z,97431.75
2022-09-15T09:57:41.727Z,97433.09
2022-09-15T09:58:44.492Z,97432.59
2022-09-15T09:59:48.819Z,97438.59
2022-09-15T10:00:51.499Z,97430.47
2022-09-15T10:02:28.815Z,97439.56
2022-09-15T10:03:33.009Z,97435.44
2022-09-15T10:04:35.095Z,97433.50
2022-09-15T10:05:36.664Z,97436.25
2022-09-15T10:06:39.695Z,97436.50
2022-09-15T10:07:43.871Z,97436.25
2022-09-15T10:09:03.636Z,97435.25
2022-09-15T10:10:05.665Z,97438.28
2022-09-15T10:11:10.375Z,97432.06
2022-09-15T10:12:23.135Z,97433.66
2022-09-15T10:13:24.705Z,97442.88
2022-09-15T10:14:29.682Z,97442.00
2022-09-15T10:15:34.766Z,97443.38
2022-09-15T10:16:36.439Z,97437.97
2022-09-15T10:17:43.532Z,97444.13
2022-09-15T10:18:47.583Z,97445.22
2022-09-15T10:19:53.937Z,97450.69
2022-09-15T10:20:55.706Z,97447.47
2022-09-15T10:22:00.268Z,97436.72
2022-09-15T10:23:06.785Z,97436.19
2022-09-15T10:24:31.179Z,97444.81
2022-09-15T10:25:58.216Z,97441.41
2022-09-15T10:27:19.506Z,97439.41
2022-09-15T10:28:23.241Z,97439.25
2022-09-15T10:29:24.705Z,97443.25
2022-09-15T10:30:27.387Z,97445.91
2022-09-15T10:31:31.579Z,97450.44
2022-09-15T10:32:33.054Z,97442.09
2022-09-15T10:33:44.984Z,97443.69
2022-09-15T10:34:48.812Z,97437.59
2022-09-15T10:35:51.277Z,97444.69
2022-09-15T10:37:05.898Z,97448.84
2022-09-15T10:38:15.827Z,97442.19
2022-09-15T10:39:50.159Z,97442.78
2022-09-15T10:41:18.030Z,97450.66
2022-09-15T10:42:24.037Z,97452.16
2022-09-15T10:43:58.119Z,97453.16
2022-09-15T10:45:11.049Z,97445.66
2022-09-15T10:46:26.797Z,97444.75
2022-09-15T10:47:39.997Z,97456.25
2022-09-15T10:48:54.334Z,97451.00
2022-09-15T10:50:15.771Z,97447.50
2022-09-15T10:51:27.959Z,97457.50
2022-09-15T10:52:42.426Z,97456.31
2022-09-15T10:53:57.171Z,97447.25
2022-09-15T10:55:06.558Z,97456.09
2022-09-15T10:56:36.938Z,97448.69
2022-09-15T10:58:02.689Z,97442.69
2022-09-15T10:59:16.360Z,97442.59
2022-09-15T11:00:23.086Z,97449.66
2022-09-15T11:01:24.945Z,97442.78
2022-09-15T11:02:45.259Z,97443.50
2022-09-15T11:04:02.997Z,97441.34
2022-09-15T11:05:32.439Z,97444.59
2022-09-15T11:06:44.169Z,97438.78
2022-09-15T11:08:00.647Z,97441.09
2022-09-15T11:09:29.626Z,97442.41
2022-09-15T11:10:42.342Z,97440.69
2022-09-15T11:12:03.650Z,97442.41
2022-09-15T11:13:29.766Z,97443.81
2022-09-15T11:14:47.245Z,97442.44
2022-09-15T11:16:06.730Z,97451.66
2022-09-15T11:17:44.103Z,97443.09
2022-09-15T11:19:04.282Z,97441.84
2022-09-15T11:20:32.926Z,97448.22
2022-09-15T11:21:41.365Z,97443.25
2022-09-15T11:23:09.845Z,97437.56
2022-09-15T11:24:22.575Z,97444.69
2022-09-15T11:25:28.215Z,97445.28
2022-09-15T11:26:52.592Z,97448.09
2022-09-15T11:28:25.144Z,97447.09
2022-09-15T11:29:40.467Z,97450.75
2022-09-15T11:30:51.674Z,97448.59
2022-09-15T11:33:18.030Z,97454.31
2022-09-15T11:34:28.785Z,97460.16
2022-09-15T11:35:31.146Z,97459.72
2022-09-15T11:37:03.131Z,97457.56
2022-09-15T11:38:35.803Z,97457.91
2022-09-15T11:39:46.223Z,97458.59
2022-09-15T11:41:03.775Z,97461.91
2022-09-15T11:42:14.552Z,97462.47
2022-09-15T11:43:21.710Z,97463.97
2022-09-15T11:44:27.810Z,97459.00
2022-09-15T11:45:38.388Z,97460.72
2022-09-15T11:47:04.819Z,97464.06
2022-09-15T11:48:18.670Z,97466.06
2022-09-15T11:49:30.116Z,97466.31
2022-09-15T11:50:39.515Z,97461.66
2022-09-15T11:51:50.732Z,97467.47
2022-09-15T11:52:55.126Z,97465.16
2022-09-15T11:54:17.299Z,97457.41
2022-09-15T11:55:39.378Z,97461.25
2022-09-15T11:56:46.431Z,97460.81
2022-09-15T11:57:55.539Z,97455.16
2022-09-15T11:59:23.303Z,97461.56
2022-09-15T12:00:24.770Z,97460.97
2022-09-15T12:01:56.968Z,97457.78
2022-09-15T12:03:23.186Z,97467.19
2022-09-15T12:04:39.262Z,97467.31
2022-09-15T12:05:48.559Z,97461.38
2022-09-15T12:08:15.414Z,97459.56
2022-09-15T12:09:19.729Z,97467.63
2022-09-15T12:10:27.569Z,97466.88
2022-09-15T12:11:33.231Z,97466.53
2022-09-15T12:12:36.103Z,97467.47
2022-09-15T12:13:37.581Z,97468.56
2022-09-15T12:14:42.693Z,97468.47
2022-09-15T12:15:46.567Z,97478.72
2022-09-15T12:16:48.413Z,97479.03
2022-09-15T12:18:06.449Z,97470.03
2022-09-15T12:19:34.677Z,97473.19
2022-09-15T12:20:48.625Z,97465.63
2022-09-15T12:21:57.054Z,97477.53
2022-09-15T12:23:09.615Z,97468.22
2022-09-15T12:24:33.848Z,97469.38
2022-09-15T12:25:55.874Z,97473.63
2022-09-15T12:27:00.772Z,97469.72
2022-09-15T12:28:23.942Z,97476.56
2022-09-15T12:29:30.386Z,97474.75
2022-09-15T12:30:41.448Z,97478.78
2022-09-15T12:31:45.296Z,97473.81
2022-09-15T12:32:47.587Z,97478.31
2022-09-15T12:33:51.749Z,97479.31
2022-09-15T12:35:25.708Z,97480.38
2022-09-15T12:36:45.735Z,97475.72
2022-09-15T12:38:00.488Z,97483.38
2022-09-15T12:39:04.151Z,97481.63
2022-09-15T12:40:07.925Z,97480.72
2022-09-15T12:41:11.321Z,97478.72
2022-09-15T12:42:23.303Z,97477.88
2022-09-15T12:43:25.697Z,97475.53
2022-09-15T12:44:38.169Z,97484.09
2022-09-15T12:45:43.037Z,97482.38
2022-09-15T12:46:52.172Z,97479.38
2022-09-15T12:48:07.579Z,97483.53
2022-09-15T12:49:18.029Z,97491.94
2022-09-15T12:50:19.824Z,97494.53
2022-09-15T12:51:25.360Z,97490.28
2022-09-15T12:52:28.497Z,97485.47
2022-09-15T12:54:40.107Z,97486.88
2022-09-15T12:55:55.388Z,97488.28
2022-09-15T12:56:58.159Z,97488.03
2022-09-15T12:58:07.404Z,97487.31
2022-09-15T12:59:15.024Z,97494.38
2022-09-15T13:01:14.267Z,97502.53
2022-09-15T13:02:42.534Z,97498.84
2022-09-15T13:03:43.986Z,97497.31
2022-09-15T13:04:54.625Z,97491.97
2022-09-15T13:06:14.936Z,97496.06
2022-09-15T13:07:16.347Z,97500.09
2022-09-15T13:08:23.896Z,97501.88